sensor_id;sensor_type;location;lat;lon;timestamp;P1;durP1;ratioP1;P2;durP2;ratioP2
12587;SDS011;6359;51.450;7.346;2022-11-13T00:01:09;23.48;;;15.15;;
12587;SDS011;6359;51.450;7.346;2022-11-13T00:03:37;23.50;;;15.07;;
12587;SDS011;6359;51.450;7.346;2022-11-13T00:06:04;23.05;;;15.65;;
12587;SDS011;6359;51.450;7.346;2022-11-13T00:08:34;21.17;;;14.90;;
12587;SDS011;6359;51.450;7.346;2022-11-13T00:11:02;21.52;;;14.68;;
12587;SDS011;6359;51.450;7.346;2022-11-13T00:13:30;22.77;;;14.60;;
12587;SDS011;6359;51.450;7.346;2022-11-13T00:15:58;24.05;;;15.23;;
12587;SDS011;6359;51.450;7.346;2022-11-13T00:18:28;22.65;;;15.10;;
12587;SDS011;6359;51.450;7.346;2022-11-13T00:20:55;24.02;;;15.40;;
12587;SDS011;6359;51.450;7.346;2022-11-13T00:23:22;21.70;;;14.32;;
12587;SDS011;6359;51.450;7.346;2022-11-13T00:25:49;24.67;;;15.82;;
12587;SDS011;6359;51.450;7.346;2022-11-13T00:28:16;24.65;;;15.40;;
12587;SDS011;6359;51.450;7.346;2022-11-13T00:30:43;24.05;;;15.40;;
12587;SDS011;6359;51.450;7.346;2022-11-13T00:33:10;18.50;;;14.27;;
12587;SDS011;6359;51.450;7.346;2022-11-13T00:35:39;24.17;;;15.00;;
12587;SDS011;6359;51.450;7.346;2022-11-13T00:38:06;23.58;;;15.25;;
12587;SDS011;6359;51.450;7.346;2022-11-13T00:40:33;21.27;;;14.82;;
12587;SDS011;6359;51.450;7.346;2022-11-13T00:43:00;23.30;;;14.13;;
12587;SDS011;6359;51.450;7.346;2022-11-13T00:45:27;19.27;;;13.82;;
12587;SDS011;6359;51.450;7.346;2022-11-13T00:47:54;20.20;;;13.15;;
12587;SDS011;6359;51.450;7.346;2022-11-13T00:50:21;23.23;;;13.13;;
12587;SDS011;6359;51.450;7.346;2022-11-13T00:52:49;20.50;;;14.05;;
12587;SDS011;6359;51.450;7.346;2022-11-13T00:55:16;22.90;;;13.68;;
12587;SDS011;6359;51.450;7.346;2022-11-13T00:57:43;20.85;;;14.32;;
12587;SDS011;6359;51.450;7.346;2022-11-13T01:00:10;23.33;;;13.52;;
12587;SDS011;6359;51.450;7.346;2022-11-13T01:02:38;21.83;;;14.18;;
12587;SDS011;6359;51.450;7.346;2022-11-13T01:05:05;21.05;;;14.30;;
12587;SDS011;6359;51.450;7.346;2022-11-13T01:07:34;22.80;;;14.45;;
12587;SDS011;6359;51.450;7.346;2022-11-13T01:10:03;23.42;;;15.02;;
12587;SDS011;6359;51.450;7.346;2022-11-13T01:12:32;20.23;;;14.23;;
12587;SDS011;6359;51.450;7.346;2022-11-13T01:14:59;19.42;;;13.52;;
12587;SDS011;6359;51.450;7.346;2022-11-13T01:17:26;19.27;;;14.00;;
12587;SDS011;6359;51.450;7.346;2022-11-13T01:19:53;19.08;;;13.93;;
12587;SDS011;6359;51.450;7.346;2022-11-13T01:22:20;20.83;;;13.10;;
12587;SDS011;6359;51.450;7.346;2022-11-13T01:24:47;19.25;;;13.68;;
12587;SDS011;6359;51.450;7.346;2022-11-13T01:27:16;18.00;;;13.07;;
12587;SDS011;6359;51.450;7.346;2022-11-13T01:29:43;18.80;;;14.00;;
12587;SDS011;6359;51.450;7.346;2022-11-13T01:32:10;22.15;;;14.10;;
12587;SDS011;6359;51.450;7.346;2022-11-13T01:34:37;18.75;;;13.10;;
12587;SDS011;6359;51.450;7.346;2022-11-13T01:37:04;17.02;;;12.73;;
12587;SDS011;6359;51.450;7.346;2022-11-13T01:39:31;20.75;;;13.63;;
12587;SDS011;6359;51.450;7.346;2022-11-13T01:41:59;22.60;;;13.88;;
12587;SDS011;6359;51.450;7.346;2022-11-13T01:44:43;21.02;;;14.27;;
12587;SDS011;6359;51.450;7.346;2022-11-13T01:47:12;17.98;;;12.57;;
12587;SDS011;6359;51.450;7.346;2022-11-13T01:49:39;21.23;;;13.65;;
12587;SDS011;6359;51.450;7.346;2022-11-13T01:52:10;19.27;;;13.13;;
12587;SDS011;6359;51.450;7.346;2022-11-13T01:54:41;22.65;;;13.32;;
12587;SDS011;6359;51.450;7.346;2022-11-13T01:57:14;18.42;;;12.50;;
12587;SDS011;6359;51.450;7.346;2022-11-13T01:59:44;16.98;;;12.18;;
12587;SDS011;6359;51.450;7.346;2022-11-13T02:02:15;23.05;;;13.02;;
12587;SDS011;6359;51.450;7.346;2022-11-13T02:04:42;20.05;;;13.20;;
12587;SDS011;6359;51.450;7.346;2022-11-13T02:07:10;20.00;;;13.13;;
12587;SDS011;6359;51.450;7.346;2022-11-13T02:09:40;20.02;;;12.93;;
12587;SDS011;6359;51.450;7.346;2022-11-13T02:12:10;20.38;;;12.95;;
12587;SDS011;6359;51.450;7.346;2022-11-13T02:14:38;17.70;;;11.82;;
12587;SDS011;6359;51.450;7.346;2022-11-13T02:17:10;21.93;;;12.97;;
12587;SDS011;6359;51.450;7.346;2022-11-13T02:19:41;17.83;;;12.90;;
12587;SDS011;6359;51.450;7.346;2022-11-13T02:22:14;17.30;;;12.80;;
12587;SDS011;6359;51.450;7.346;2022-11-13T02:24:47;18.38;;;12.65;;
12587;SDS011;6359;51.450;7.346;2022-11-13T02:27:17;18.47;;;12.23;;
12587;SDS011;6359;51.450;7.346;2022-11-13T02:29:49;21.07;;;12.97;;
12587;SDS011;6359;51.450;7.346;2022-11-13T02:32:16;15.07;;;11.30;;
12587;SDS011;6359;51.450;7.346;2022-11-13T02:34:43;15.50;;;10.32;;
12587;SDS011;6359;51.450;7.346;2022-11-13T02:37:10;16.77;;;11.30;;
12587;SDS011;6359;51.450;7.346;2022-11-13T02:39:47;17.87;;;11.77;;
12587;SDS011;6359;51.450;7.346;2022-11-13T02:42:16;17.87;;;12.13;;
12587;SDS011;6359;51.450;7.346;2022-11-13T02:44:48;18.37;;;11.60;;
12587;SDS011;6359;51.450;7.346;2022-11-13T02:47:17;17.97;;;11.30;;
12587;SDS011;6359;51.450;7.346;2022-11-13T02:49:50;16.80;;;10.83;;
12587;SDS011;6359;51.450;7.346;2022-11-13T02:52:24;17.90;;;11.93;;
12587;SDS011;6359;51.450;7.346;2022-11-13T02:54:56;15.63;;;11.37;;
12587;SDS011;6359;51.450;7.346;2022-11-13T02:57:25;16.77;;;11.57;;
12587;SDS011;6359;51.450;7.346;2022-11-13T02:59:53;16.85;;;10.90;;
12587;SDS011;6359;51.450;7.346;2022-11-13T03:02:27;16.67;;;10.70;;
12587;SDS011;6359;51.450;7.346;2022-11-13T03:04:57;18.03;;;12.23;;
12587;SDS011;6359;51.450;7.346;2022-11-13T03:07:26;15.30;;;10.73;;
12587;SDS011;6359;51.450;7.346;2022-11-13T03:10:07;17.27;;;10.80;;
12587;SDS011;6359;51.450;7.346;2022-11-13T03:12:35;18.40;;;10.60;;
12587;SDS011;6359;51.450;7.346;2022-11-13T03:15:05;13.60;;;10.63;;
12587;SDS011;6359;51.450;7.346;2022-11-13T03:17:37;15.50;;;10.50;;
12587;SDS011;6359;51.450;7.346;2022-11-13T03:20:05;16.90;;;10.70;;
12587;SDS011;6359;51.450;7.346;2022-11-13T03:22:36;16.73;;;10.50;;
12587;SDS011;6359;51.450;7.346;2022-11-13T03:25:06;14.97;;;10.70;;
12587;SDS011;6359;51.450;7.346;2022-11-13T03:27:34;15.93;;;10.67;;
12587;SDS011;6359;51.450;7.346;2022-11-13T03:30:01;13.73;;;10.30;;
12587;SDS011;6359;51.450;7.346;2022-11-13T03:32:29;17.33;;;11.07;;
12587;SDS011;6359;51.450;7.346;2022-11-13T03:34:56;16.30;;;9.63;;
12587;SDS011;6359;51.450;7.346;2022-11-13T03:37:23;14.07;;;9.97;;
12587;SDS011;6359;51.450;7.346;2022-11-13T03:39:51;18.10;;;10.50;;
12587;SDS011;6359;51.450;7.346;2022-11-13T03:42:19;16.37;;;10.90;;
12587;SDS011;6359;51.450;7.346;2022-11-13T03:44:46;12.77;;;9.60;;
12587;SDS011;6359;51.450;7.346;2022-11-13T03:47:13;16.70;;;9.60;;
12587;SDS011;6359;51.450;7.346;2022-11-13T03:49:40;17.00;;;10.23;;
12587;SDS011;6359;51.450;7.346;2022-11-13T03:52:07;14.97;;;10.07;;
12587;SDS011;6359;51.450;7.346;2022-11-13T03:54:34;16.07;;;9.60;;
12587;SDS011;6359;51.450;7.346;2022-11-13T03:57:01;18.23;;;10.93;;
12587;SDS011;6359;51.450;7.346;2022-11-13T03:59:29;15.27;;;10.13;;
12587;SDS011;6359;51.450;7.346;2022-11-13T04:01:56;13.60;;;10.37;;
12587;SDS011;6359;51.450;7.346;2022-11-13T04:04:23;13.93;;;9.87;;
12587;SDS011;6359;51.450;7.346;2022-11-13T04:06:50;11.43;;;9.33;;
12587;SDS011;6359;51.450;7.346;2022-11-13T04:09:16;13.23;;;9.73;;
12587;SDS011;6359;51.450;7.346;2022-11-13T04:11:44;12.77;;;9.63;;
12587;SDS011;6359;51.450;7.346;2022-11-13T04:14:10;16.27;;;9.87;;
12587;SDS011;6359;51.450;7.346;2022-11-13T04:16:39;12.13;;;9.17;;
12587;SDS011;6359;51.450;7.346;2022-11-13T04:19:06;15.30;;;9.67;;
12587;SDS011;6359;51.450;7.346;2022-11-13T04:21:32;14.90;;;10.20;;
12587;SDS011;6359;51.450;7.346;2022-11-13T04:23:59;14.50;;;10.13;;
12587;SDS011;6359;51.450;7.346;2022-11-13T04:26:26;11.50;;;9.17;;
12587;SDS011;6359;51.450;7.346;2022-11-13T04:28:53;15.40;;;10.37;;
12587;SDS011;6359;51.450;7.346;2022-11-13T04:31:20;14.37;;;8.80;;
12587;SDS011;6359;51.450;7.346;2022-11-13T04:33:49;13.07;;;9.03;;
12587;SDS011;6359;51.450;7.346;2022-11-13T04:36:15;11.27;;;8.90;;
12587;SDS011;6359;51.450;7.346;2022-11-13T04:38:42;13.33;;;8.67;;
12587;SDS011;6359;51.450;7.346;2022-11-13T04:41:10;16.00;;;9.13;;
12587;SDS011;6359;51.450;7.346;2022-11-13T04:43:56;12.40;;;8.50;;
12587;SDS011;6359;51.450;7.346;2022-11-13T04:46:23;12.17;;;9.23;;
12587;SDS011;6359;51.450;7.346;2022-11-13T04:48:51;14.23;;;9.07;;
12587;SDS011;6359;51.450;7.346;2022-11-13T04:51:18;16.03;;;9.77;;
12587;SDS011;6359;51.450;7.346;2022-11-13T04:53:45;13.87;;;9.90;;
12587;SDS011;6359;51.450;7.346;2022-11-13T04:56:12;15.13;;;9.50;;
12587;SDS011;6359;51.450;7.346;2022-11-13T04:58:39;12.27;;;9.47;;
12587;SDS011;6359;51.450;7.346;2022-11-13T05:01:05;12.03;;;9.17;;
12587;SDS011;6359;51.450;7.346;2022-11-13T05:03:32;13.77;;;9.57;;
12587;SDS011;6359;51.450;7.346;2022-11-13T05:06:04;14.80;;;8.67;;
12587;SDS011;6359;51.450;7.346;2022-11-13T05:08:33;12.07;;;9.03;;
12587;SDS011;6359;51.450;7.346;2022-11-13T05:11:00;12.90;;;9.33;;
12587;SDS011;6359;51.450;7.346;2022-11-13T05:13:29;13.93;;;8.37;;
12587;SDS011;6359;51.450;7.346;2022-11-13T05:15:58;13.57;;;9.00;;
12587;SDS011;6359;51.450;7.346;2022-11-13T05:18:26;13.27;;;8.77;;
12587;SDS011;6359;51.450;7.346;2022-11-13T05:20:52;13.97;;;9.90;;
12587;SDS011;6359;51.450;7.346;2022-11-13T05:23:21;13.93;;;9.97;;
12587;SDS011;6359;51.450;7.346;2022-11-13T05:25:48;12.60;;;8.83;;
12587;SDS011;6359;51.450;7.346;2022-11-13T05:28:14;12.83;;;8.77;;
12587;SDS011;6359;51.450;7.346;2022-11-13T05:30:41;11.27;;;8.53;;
12587;SDS011;6359;51.450;7.346;2022-11-13T05:33:08;12.57;;;8.60;;
12587;SDS011;6359;51.450;7.346;2022-11-13T05:35:35;13.37;;;8.83;;
12587;SDS011;6359;51.450;7.346;2022-11-13T05:38:02;18.40;;;8.57;;
12587;SDS011;6359;51.450;7.346;2022-11-13T05:40:30;11.73;;;9.27;;
12587;SDS011;6359;51.450;7.346;2022-11-13T05:42:57;10.63;;;8.30;;
12587;SDS011;6359;51.450;7.346;2022-11-13T05:45:24;9.80;;;8.13;;
12587;SDS011;6359;51.450;7.346;2022-11-13T05:47:51;12.27;;;8.33;;
12587;SDS011;6359;51.450;7.346;2022-11-13T05:50:18;13.40;;;8.73;;
12587;SDS011;6359;51.450;7.346;2022-11-13T05:52:46;13.17;;;8.73;;
12587;SDS011;6359;51.450;7.346;2022-11-13T05:55:13;16.43;;;8.60;;
12587;SDS011;6359;51.450;7.346;2022-11-13T05:57:41;12.53;;;8.33;;
12587;SDS011;6359;51.450;7.346;2022-11-13T06:00:09;13.50;;;8.23;;
12587;SDS011;6359;51.450;7.346;2022-11-13T06:02:36;10.03;;;8.03;;
12587;SDS011;6359;51.450;7.346;2022-11-13T06:05:03;13.93;;;8.40;;
12587;SDS011;6359;51.450;7.346;2022-11-13T06:07:31;13.17;;;8.67;;
12587;SDS011;6359;51.450;7.346;2022-11-13T06:09:58;13.93;;;8.57;;
12587;SDS011;6359;51.450;7.346;2022-11-13T06:12:24;10.87;;;8.03;;
12587;SDS011;6359;51.450;7.346;2022-11-13T06:14:53;12.73;;;7.20;;
12587;SDS011;6359;51.450;7.346;2022-11-13T06:17:20;8.83;;;7.30;;
12587;SDS011;6359;51.450;7.346;2022-11-13T06:19:47;13.67;;;8.37;;
12587;SDS011;6359;51.450;7.346;2022-11-13T06:22:13;11.00;;;8.03;;
12587;SDS011;6359;51.450;7.346;2022-11-13T06:24:40;11.33;;;8.17;;
12587;SDS011;6359;51.450;7.346;2022-11-13T06:27:07;10.20;;;7.37;;
12587;SDS011;6359;51.450;7.346;2022-11-13T06:29:34;13.63;;;8.83;;
12587;SDS011;6359;51.450;7.346;2022-11-13T06:32:02;10.83;;;8.23;;
12587;SDS011;6359;51.450;7.346;2022-11-13T06:34:30;11.77;;;8.20;;
12587;SDS011;6359;51.450;7.346;2022-11-13T06:36:57;14.93;;;8.60;;
12587;SDS011;6359;51.450;7.346;2022-11-13T06:39:24;11.73;;;7.60;;
12587;SDS011;6359;51.450;7.346;2022-11-13T06:41:51;13.60;;;7.60;;
12587;SDS011;6359;51.450;7.346;2022-11-13T06:44:18;10.47;;;8.13;;
12587;SDS011;6359;51.450;7.346;2022-11-13T06:46:45;11.83;;;8.37;;
12587;SDS011;6359;51.450;7.346;2022-11-13T06:49:13;10.80;;;8.13;;
12587;SDS011;6359;51.450;7.346;2022-11-13T06:51:40;14.67;;;8.43;;
12587;SDS011;6359;51.450;7.346;2022-11-13T06:54:07;12.37;;;8.87;;
12587;SDS011;6359;51.450;7.346;2022-11-13T06:56:34;12.70;;;8.50;;
12587;SDS011;6359;51.450;7.346;2022-11-13T06:59:00;11.00;;;7.87;;
12587;SDS011;6359;51.450;7.346;2022-11-13T07:01:27;11.37;;;7.83;;
12587;SDS011;6359;51.450;7.346;2022-11-13T07:03:54;11.40;;;7.90;;
12587;SDS011;6359;51.450;7.346;2022-11-13T07:06:23;11.63;;;8.20;;
12587;SDS011;6359;51.450;7.346;2022-11-13T07:08:50;12.07;;;8.13;;
12587;SDS011;6359;51.450;7.346;2022-11-13T07:11:18;11.60;;;7.70;;
12587;SDS011;6359;51.450;7.346;2022-11-13T07:13:46;11.57;;;8.23;;
12587;SDS011;6359;51.450;7.346;2022-11-13T07:16:13;11.03;;;7.57;;
12587;SDS011;6359;51.450;7.346;2022-11-13T07:18:41;13.03;;;8.27;;
12587;SDS011;6359;51.450;7.346;2022-11-13T07:21:09;10.20;;;7.50;;
12587;SDS011;6359;51.450;7.346;2022-11-13T07:23:38;10.30;;;7.50;;
12587;SDS011;6359;51.450;7.346;2022-11-13T07:26:07;11.43;;;8.30;;
12587;SDS011;6359;51.450;7.346;2022-11-13T07:28:35;11.33;;;7.47;;
12587;SDS011;6359;51.450;7.346;2022-11-13T07:31:02;10.77;;;7.10;;
12587;SDS011;6359;51.450;7.346;2022-11-13T07:33:29;10.50;;;7.83;;
12587;SDS011;6359;51.450;7.346;2022-11-13T07:35:56;9.90;;;7.40;;
12587;SDS011;6359;51.450;7.346;2022-11-13T07:38:23;11.13;;;7.67;;
12587;SDS011;6359;51.450;7.346;2022-11-13T07:40:52;10.97;;;7.87;;
12587;SDS011;6359;51.450;7.346;2022-11-13T07:43:19;12.90;;;7.60;;
12587;SDS011;6359;51.450;7.346;2022-11-13T07:45:46;11.50;;;7.40;;
12587;SDS011;6359;51.450;7.346;2022-11-13T07:48:18;8.80;;;7.43;;
12587;SDS011;6359;51.450;7.346;2022-11-13T07:50:46;11.50;;;7.80;;
12587;SDS011;6359;51.450;7.346;2022-11-13T07:53:13;11.30;;;8.03;;
12587;SDS011;6359;51.450;7.346;2022-11-13T07:55:40;9.97;;;7.20;;
12587;SDS011;6359;51.450;7.346;2022-11-13T07:58:08;11.63;;;7.82;;
12587;SDS011;6359;51.450;7.346;2022-11-13T08:00:35;14.38;;;7.53;;
12587;SDS011;6359;51.450;7.346;2022-11-13T08:03:05;12.65;;;7.43;;
12587;SDS011;6359;51.450;7.346;2022-11-13T08:05:33;10.03;;;7.67;;
12587;SDS011;6359;51.450;7.346;2022-11-13T08:08:00;8.00;;;6.63;;
12587;SDS011;6359;51.450;7.346;2022-11-13T08:10:28;8.38;;;6.53;;
12587;SDS011;6359;51.450;7.346;2022-11-13T08:12:58;8.10;;;6.05;;
12587;SDS011;6359;51.450;7.346;2022-11-13T08:15:28;6.30;;;5.47;;
12587;SDS011;6359;51.450;7.346;2022-11-13T08:17:56;9.73;;;6.15;;
12587;SDS011;6359;51.450;7.346;2022-11-13T08:20:24;6.63;;;4.88;;
12587;SDS011;6359;51.450;7.346;2022-11-13T08:22:54;9.23;;;5.95;;
12587;SDS011;6359;51.450;7.346;2022-11-13T08:25:22;9.10;;;5.70;;
12587;SDS011;6359;51.450;7.346;2022-11-13T08:27:50;6.32;;;5.00;;
12587;SDS011;6359;51.450;7.346;2022-11-13T08:30:18;9.05;;;5.60;;
12587;SDS011;6359;51.450;7.346;2022-11-13T08:32:47;6.75;;;5.25;;
12587;SDS011;6359;51.450;7.346;2022-11-13T08:35:14;7.25;;;5.40;;
12587;SDS011;6359;51.450;7.346;2022-11-13T08:37:41;8.20;;;6.07;;
12587;SDS011;6359;51.450;7.346;2022-11-13T08:40:08;9.00;;;5.97;;
12587;SDS011;6359;51.450;7.346;2022-11-13T08:42:36;7.85;;;5.85;;
12587;SDS011;6359;51.450;7.346;2022-11-13T08:45:03;8.38;;;5.55;;
12587;SDS011;6359;51.450;7.346;2022-11-13T08:47:30;7.72;;;5.25;;
12587;SDS011;6359;51.450;7.346;2022-11-13T08:49:58;7.53;;;5.20;;
12587;SDS011;6359;51.450;7.346;2022-11-13T08:52:25;6.72;;;5.55;;
12587;SDS011;6359;51.450;7.346;2022-11-13T08:54:52;8.30;;;5.00;;
12587;SDS011;6359;51.450;7.346;2022-11-13T08:57:19;9.90;;;4.80;;
12587;SDS011;6359;51.450;7.346;2022-11-13T08:59:47;6.05;;;4.80;;
12587;SDS011;6359;51.450;7.346;2022-11-13T09:02:14;6.10;;;4.40;;
12587;SDS011;6359;51.450;7.346;2022-11-13T09:04:41;5.72;;;4.25;;
12587;SDS011;6359;51.450;7.346;2022-11-13T09:07:09;4.53;;;4.10;;
12587;SDS011;6359;51.450;7.346;2022-11-13T09:09:36;8.57;;;4.45;;
12587;SDS011;6359;51.450;7.346;2022-11-13T09:12:03;4.65;;;3.92;;
12587;SDS011;6359;51.450;7.346;2022-11-13T09:14:30;5.25;;;3.70;;
12587;SDS011;6359;51.450;7.346;2022-11-13T09:16:57;6.03;;;4.22;;
12587;SDS011;6359;51.450;7.346;2022-11-13T09:19:24;5.82;;;4.65;;
12587;SDS011;6359;51.450;7.346;2022-11-13T09:21:52;5.57;;;4.72;;
12587;SDS011;6359;51.450;7.346;2022-11-13T09:24:20;6.60;;;4.47;;
12587;SDS011;6359;51.450;7.346;2022-11-13T09:26:47;6.60;;;4.50;;
12587;SDS011;6359;51.450;7.346;2022-11-13T09:29:14;5.68;;;4.50;;
12587;SDS011;6359;51.450;7.346;2022-11-13T09:31:42;4.47;;;4.07;;
12587;SDS011;6359;51.450;7.346;2022-11-13T09:34:09;8.38;;;4.22;;
12587;SDS011;6359;51.450;7.346;2022-11-13T09:36:36;7.78;;;4.10;;
12587;SDS011;6359;51.450;7.346;2022-11-13T09:39:03;4.80;;;4.20;;
12587;SDS011;6359;51.450;7.346;2022-11-13T09:41:32;6.13;;;4.32;;
12587;SDS011;6359;51.450;7.346;2022-11-13T09:44:03;5.93;;;4.50;;
12587;SDS011;6359;51.450;7.346;2022-11-13T09:46:34;5.93;;;4.32;;
12587;SDS011;6359;51.450;7.346;2022-11-13T09:49:10;7.78;;;4.50;;
12587;SDS011;6359;51.450;7.346;2022-11-13T09:51:48;6.13;;;4.60;;
12587;SDS011;6359;51.450;7.346;2022-11-13T09:54:17;4.72;;;4.22;;
12587;SDS011;6359;51.450;7.346;2022-11-13T09:56:49;4.72;;;4.20;;
12587;SDS011;6359;51.450;7.346;2022-11-13T09:59:23;4.90;;;4.40;;
12587;SDS011;6359;51.450;7.346;2022-11-13T10:01:57;6.50;;;5.00;;
12587;SDS011;6359;51.450;7.346;2022-11-13T10:04:32;5.20;;;4.53;;
12587;SDS011;6359;51.450;7.346;2022-11-13T10:07:19;5.45;;;4.25;;
12587;SDS011;6359;51.450;7.346;2022-11-13T10:09:58;6.25;;;4.03;;
12587;SDS011;6359;51.450;7.346;2022-11-13T10:12:32;5.15;;;4.47;;
12587;SDS011;6359;51.450;7.346;2022-11-13T10:15:00;5.13;;;4.40;;
12587;SDS011;6359;51.450;7.346;2022-11-13T10:17:30;5.75;;;4.60;;
12587;SDS011;6359;51.450;7.346;2022-11-13T10:20:02;5.15;;;4.65;;
12587;SDS011;6359;51.450;7.346;2022-11-13T10:22:34;5.13;;;4.35;;
12587;SDS011;6359;51.450;7.346;2022-11-13T10:25:09;4.60;;;4.10;;
12587;SDS011;6359;51.450;7.346;2022-11-13T10:27:41;5.20;;;4.40;;
12587;SDS011;6359;51.450;7.346;2022-11-13T10:30:12;4.93;;;4.03;;
12587;SDS011;6359;51.450;7.346;2022-11-13T10:32:41;4.97;;;4.05;;
12587;SDS011;6359;51.450;7.346;2022-11-13T10:35:33;4.63;;;3.63;;
12587;SDS011;6359;51.450;7.346;2022-11-13T10:38:10;4.57;;;3.60;;
12587;SDS011;6359;51.450;7.346;2022-11-13T10:40:50;4.35;;;3.92;;
12587;SDS011;6359;51.450;7.346;2022-11-13T10:43:19;4.05;;;3.65;;
12587;SDS011;6359;51.450;7.346;2022-11-13T10:45:55;8.88;;;3.65;;
12587;SDS011;6359;51.450;7.346;2022-11-13T10:48:24;3.92;;;3.47;;
12587;SDS011;6359;51.450;7.346;2022-11-13T10:50:54;4.50;;;3.83;;
12587;SDS011;6359;51.450;7.346;2022-11-13T10:53:22;5.03;;;3.55;;
12587;SDS011;6359;51.450;7.346;2022-11-13T10:55:51;4.10;;;3.63;;
12587;SDS011;6359;51.450;7.346;2022-11-13T10:58:23;3.80;;;3.03;;
12587;SDS011;6359;51.450;7.346;2022-11-13T11:00:50;5.63;;;3.60;;
12587;SDS011;6359;51.450;7.346;2022-11-13T11:03:17;6.05;;;3.60;;
12587;SDS011;6359;51.450;7.346;2022-11-13T11:05:52;4.10;;;3.67;;
12587;SDS011;6359;51.450;7.346;2022-11-13T11:08:21;3.67;;;3.38;;
12587;SDS011;6359;51.450;7.346;2022-11-13T11:10:54;3.72;;;3.10;;
12587;SDS011;6359;51.450;7.346;2022-11-13T11:13:43;3.45;;;3.00;;
12587;SDS011;6359;51.450;7.346;2022-11-13T11:16:11;4.72;;;3.35;;
12587;SDS011;6359;51.450;7.346;2022-11-13T11:18:44;5.35;;;4.38;;
12587;SDS011;6359;51.450;7.346;2022-11-13T11:21:17;4.88;;;3.05;;
12587;SDS011;6359;51.450;7.346;2022-11-13T11:23:48;3.40;;;3.10;;
12587;SDS011;6359;51.450;7.346;2022-11-13T11:26:20;4.28;;;2.90;;
12587;SDS011;6359;51.450;7.346;2022-11-13T11:28:52;6.45;;;3.03;;
12587;SDS011;6359;51.450;7.346;2022-11-13T11:31:34;4.35;;;3.08;;
12587;SDS011;6359;51.450;7.346;2022-11-13T11:34:10;6.68;;;4.50;;
12587;SDS011;6359;51.450;7.346;2022-11-13T11:36:44;2.65;;;2.15;;
12587;SDS011;6359;51.450;7.346;2022-11-13T11:39:24;3.22;;;2.38;;
12587;SDS011;6359;51.450;7.346;2022-11-13T11:41:56;4.53;;;2.03;;
12587;SDS011;6359;51.450;7.346;2022-11-13T11:44:32;2.92;;;1.73;;
12587;SDS011;6359;51.450;7.346;2022-11-13T11:47:10;2.30;;;2.10;;
12587;SDS011;6359;51.450;7.346;2022-11-13T11:49:40;1.92;;;1.63;;
12587;SDS011;6359;51.450;7.346;2022-11-13T11:52:12;3.35;;;1.90;;
12587;SDS011;6359;51.450;7.346;2022-11-13T11:54:56;1.90;;;1.80;;
12587;SDS011;6359;51.450;7.346;2022-11-13T11:57:38;2.80;;;1.75;;
12587;SDS011;6359;51.450;7.346;2022-11-13T12:00:15;3.50;;;1.80;;
12587;SDS011;6359;51.450;7.346;2022-11-13T12:05:55;2.08;;;1.58;;
12587;SDS011;6359;51.450;7.346;2022-11-13T12:08:28;3.83;;;1.90;;
12587;SDS011;6359;51.450;7.346;2022-11-13T12:11:02;4.85;;;1.98;;
12587;SDS011;6359;51.450;7.346;2022-11-13T12:13:39;1.70;;;1.60;;
12587;SDS011;6359;51.450;7.346;2022-11-13T12:16:15;3.15;;;1.95;;
12587;SDS011;6359;51.450;7.346;2022-11-13T12:18:48;1.75;;;1.63;;
12587;SDS011;6359;51.450;7.346;2022-11-13T12:21:26;2.50;;;1.83;;
12587;SDS011;6359;51.450;7.346;2022-11-13T12:27:00;2.08;;;1.88;;
12587;SDS011;6359;51.450;7.346;2022-11-13T12:29:39;2.00;;;1.80;;
12587;SDS011;6359;51.450;7.346;2022-11-13T12:32:19;5.05;;;3.83;;
12587;SDS011;6359;51.450;7.346;2022-11-13T12:34:59;6.28;;;3.08;;
12587;SDS011;6359;51.450;7.346;2022-11-13T12:37:31;4.85;;;3.40;;
12587;SDS011;6359;51.450;7.346;2022-11-13T12:40:04;4.72;;;3.50;;
12587;SDS011;6359;51.450;7.346;2022-11-13T12:42:34;5.05;;;3.78;;
12587;SDS011;6359;51.450;7.346;2022-11-13T12:45:07;3.80;;;3.33;;
12587;SDS011;6359;51.450;7.346;2022-11-13T12:47:43;4.88;;;3.35;;
12587;SDS011;6359;51.450;7.346;2022-11-13T12:50:21;3.80;;;3.15;;
12587;SDS011;6359;51.450;7.346;2022-11-13T12:52:57;4.78;;;2.72;;
12587;SDS011;6359;51.450;7.346;2022-11-13T12:55:27;5.60;;;3.20;;
12587;SDS011;6359;51.450;7.346;2022-11-13T12:57:56;5.07;;;3.30;;
12587;SDS011;6359;51.450;7.346;2022-11-13T13:00:33;7.38;;;2.72;;
12587;SDS011;6359;51.450;7.346;2022-11-13T13:03:06;7.22;;;3.65;;
12587;SDS011;6359;51.450;7.346;2022-11-13T13:05:50;11.23;;;5.85;;
12587;SDS011;6359;51.450;7.346;2022-11-13T13:08:29;8.90;;;6.10;;
12587;SDS011;6359;51.450;7.346;2022-11-13T13:11:10;12.32;;;7.55;;
12587;SDS011;6359;51.450;7.346;2022-11-13T13:13:43;4.80;;;3.30;;
12587;SDS011;6359;51.450;7.346;2022-11-13T13:16:21;3.65;;;2.20;;
12587;SDS011;6359;51.450;7.346;2022-11-13T13:18:51;5.22;;;3.15;;
12587;SDS011;6359;51.450;7.346;2022-11-13T13:21:19;4.88;;;3.00;;
12587;SDS011;6359;51.450;7.346;2022-11-13T13:23:47;6.30;;;3.35;;
12587;SDS011;6359;51.450;7.346;2022-11-13T13:26:17;5.15;;;2.83;;
12587;SDS011;6359;51.450;7.346;2022-11-13T13:28:47;4.72;;;3.08;;
12587;SDS011;6359;51.450;7.346;2022-11-13T13:31:21;5.20;;;4.30;;
12587;SDS011;6359;51.450;7.346;2022-11-13T13:34:12;5.75;;;4.20;;
12587;SDS011;6359;51.450;7.346;2022-11-13T13:36:49;6.35;;;4.20;;
12587;SDS011;6359;51.450;7.346;2022-11-13T13:39:25;5.78;;;4.28;;
12587;SDS011;6359;51.450;7.346;2022-11-13T13:42:07;6.47;;;4.22;;
12587;SDS011;6359;51.450;7.346;2022-11-13T13:44:46;6.43;;;3.90;;
12587;SDS011;6359;51.450;7.346;2022-11-13T13:47:24;4.25;;;3.72;;
12587;SDS011;6359;51.450;7.346;2022-11-13T13:49:55;6.75;;;4.20;;
12587;SDS011;6359;51.450;7.346;2022-11-13T13:52:24;5.05;;;4.03;;
12587;SDS011;6359;51.450;7.346;2022-11-13T13:54:54;7.05;;;3.97;;
12587;SDS011;6359;51.450;7.346;2022-11-13T13:57:25;6.95;;;4.03;;
12587;SDS011;6359;51.450;7.346;2022-11-13T14:00:11;5.57;;;3.97;;
12587;SDS011;6359;51.450;7.346;2022-11-13T14:02:51;5.03;;;3.53;;
12587;SDS011;6359;51.450;7.346;2022-11-13T14:05:28;6.20;;;3.88;;
12587;SDS011;6359;51.450;7.346;2022-11-13T14:08:16;4.72;;;3.50;;
12587;SDS011;6359;51.450;7.346;2022-11-13T14:10:51;4.95;;;4.28;;
12587;SDS011;6359;51.450;7.346;2022-11-13T14:13:25;6.60;;;3.80;;
12587;SDS011;6359;51.450;7.346;2022-11-13T14:15:59;4.95;;;3.83;;
12587;SDS011;6359;51.450;7.346;2022-11-13T14:18:27;3.95;;;2.80;;
12587;SDS011;6359;51.450;7.346;2022-11-13T14:20:56;6.15;;;4.68;;
12587;SDS011;6359;51.450;7.346;2022-11-13T14:23:25;4.85;;;2.95;;
12587;SDS011;6359;51.450;7.346;2022-11-13T14:25:54;3.00;;;2.63;;
12587;SDS011;6359;51.450;7.346;2022-11-13T14:28:23;4.13;;;2.35;;
12587;SDS011;6359;51.450;7.346;2022-11-13T14:30:53;3.25;;;2.38;;
12587;SDS011;6359;51.450;7.346;2022-11-13T14:33:22;5.18;;;2.83;;
12587;SDS011;6359;51.450;7.346;2022-11-13T14:35:50;5.43;;;2.15;;
12587;SDS011;6359;51.450;7.346;2022-11-13T14:38:22;4.18;;;2.30;;
12587;SDS011;6359;51.450;7.346;2022-11-13T14:40:52;3.40;;;2.55;;
12587;SDS011;6359;51.450;7.346;2022-11-13T14:43:21;3.53;;;2.20;;
12587;SDS011;6359;51.450;7.346;2022-11-13T14:45:51;3.28;;;2.75;;
12587;SDS011;6359;51.450;7.346;2022-11-13T14:48:20;3.17;;;2.60;;
12587;SDS011;6359;51.450;7.346;2022-11-13T14:50:49;3.88;;;2.47;;
12587;SDS011;6359;51.450;7.346;2022-11-13T14:53:25;7.03;;;3.22;;
12587;SDS011;6359;51.450;7.346;2022-11-13T14:55:54;3.60;;;3.05;;
12587;SDS011;6359;51.450;7.346;2022-11-13T14:58:26;4.70;;;3.90;;
12587;SDS011;6359;51.450;7.346;2022-11-13T15:00:54;3.53;;;2.90;;
12587;SDS011;6359;51.450;7.346;2022-11-13T15:03:23;3.03;;;2.38;;
12587;SDS011;6359;51.450;7.346;2022-11-13T15:05:50;3.58;;;2.20;;
12587;SDS011;6359;51.450;7.346;2022-11-13T15:08:17;2.22;;;1.98;;
12587;SDS011;6359;51.450;7.346;2022-11-13T15:10:45;2.25;;;1.80;;
12587;SDS011;6359;51.450;7.346;2022-11-13T15:13:13;3.47;;;3.03;;